Latest Weather Observations for Shepparton

IDV60801

Issued at 8:22 pm EST Monday 15 July 2024 (issued every 10 minutes, with the page automatically refreshed every 10 minutes)

About weather observations | Map of weather stations | Latest weather observations for VIC | Other Formats
Station Details ID: 081125 Name: SHEPPARTON AIRPORT Lat: -36.43 Lon: 145.39 Height: 113.9 m
Data from the previous 72 hours. | See also: Recent months at Shepparton
Date/Time
EST
Temp
°C
App
Temp
°C
Dew
Point
°C
Rel
Hum
%
Delta-T
°C
Wind Press
QNH
hPa
Press
MSL
hPa
Rain since
9am
mm
Dir  Spd
km/h
Gust
km/h
Spd
kts
Gust
kts
15/08:00pm 8.4 3.5 5.3 81 1.4 W 20 32 11 17 1005.5 1005.7 0.8
15/07:30pm 8.3 3.1 5.4 82 1.3 WNW 22 32 12 17 1005.6 1005.8 0.8
15/07:00pm 8.2 3.4 5.5 83 1.2 W 20 28 11 15 1005.9 1006.1 0.8
15/06:30pm 8.4 2.8 5.5 82 1.3 WNW 24 32 13 17 1006.0 1006.2 0.6
15/06:00pm 8.2 3.0 5.7 84 1.1 W 22 32 12 17 1006.3 1006.5 0.6
15/05:30pm 8.5 3.5 6.3 86 1.0 W 22 33 12 18 1006.3 1006.5 0.6
15/05:00pm 9.1 3.2 6.0 81 1.4 W 26 44 14 24 1006.2 1006.4 0.4
15/04:30pm 9.3 4.6 5.9 79 1.6 W 20 30 11 16 1006.1 1006.3 0.0
15/04:00pm 10.2 4.1 4.6 68 2.5 W 26 41 14 22 1006.1 1006.3 0.0
15/03:30pm 11.0 5.6 4.5 64 2.9 W 22 35 12 19 1006.1 1006.3 0.0
15/03:00pm 11.3 6.2 6.0 70 2.5 W 22 32 12 17 1006.2 1006.4 0.0
15/02:30pm 10.5 5.9 6.6 77 1.8 WNW 20 35 11 19 1006.4 1006.6 0.0
15/02:00pm 10.7 5.4 6.8 77 1.9 WNW 24 35 13 19 1006.6 1006.8 0.0
15/01:30pm 10.9 6.5 7.2 78 1.8 WNW 20 30 11 16 1007.1 1007.3 0.0
15/01:00pm 10.6 5.3 6.7 77 1.9 W 24 32 13 17 1007.4 1007.6 0.0
15/12:30pm 10.3 4.8 5.7 73 2.1 W 24 39 13 21 1007.8 1008.0 0.0
15/12:00pm 11.2 6.6 6.5 73 2.2 W 20 32 11 17 1008.5 1008.7 0.0
15/11:30am 10.5 5.9 6.6 77 1.8 W 20 30 11 16 1009.0 1009.2 0.0
15/11:00am 9.8 5.1 6.2 78 1.7 W 20 28 11 15 1009.5 1009.8 0.0
15/10:30am 9.3 5.2 6.2 81 1.4 W 17 26 9 14 1009.8 1010.1 0.0
15/10:00am 8.4 4.7 6.2 86 1.0 W 15 22 8 12 1009.8 1010.1 0.0
15/09:30am 7.2 3.3 5.5 89 0.8 WNW 15 20 8 11 1009.6 1009.9 0.0
15/09:00am 5.9 2.3 4.9 93 0.4 WNW 13 19 7 10 1009.5 1009.8 0.6
15/08:30am 4.8 1.1 4.4 97 0.2 WNW 13 17 7 9 1009.6 1009.9 0.6
15/08:00am 4.0 0.2 3.9 99 0.0 WNW 13 17 7 9 1009.6 1009.9 0.6
15/07:30am 3.7 -0.2 3.6 99 0.0 WNW 13 17 7 9 1009.7 1010.0 0.6
15/07:00am 3.9 0.5 3.8 99 0.0 WNW 11 17 6 9 1009.8 1010.1 0.4
15/06:30am 3.4 0.3 3.4 100 0.0 W 9 11 5 6 1009.7 1010.0 0.4
15/06:00am 3.8 1.1 3.7 99 0.0 W 7 9 4 5 1009.7 1010.0 0.4
15/05:30am 4.1 1.6 4.0 99 0.0 W 6 7 3 4 1009.7 1010.0 0.4
15/05:00am 4.1 1.6 4.0 99 0.0 W 6 9 3 5 1009.9 1010.2 0.4
15/04:30am 3.9 0.5 3.8 99 0.0 W 11 13 6 7 1010.3 1010.5 0.4
15/04:00am 3.4 0.2 3.3 99 0.0 W 9 13 5 7 1010.6 1010.8 0.4
15/03:30am 3.9 0.4 3.5 97 0.2 W 11 15 6 8 1010.7 1010.9 0.4
15/03:00am 4.5 0.4 4.1 97 0.2 W 15 19 8 10 1011.0 1011.2 0.4
15/02:30am 4.6 0.1 4.0 96 0.3 W 17 20 9 11 1011.1 1011.3 0.4
15/02:00am 4.3 0.5 3.9 97 0.2 WSW 13 17 7 9 1011.3 1011.5 0.4
15/01:30am 4.0 0.1 3.6 97 0.2 WSW 13 17 7 9 1011.5 1011.7 0.4
15/01:00am 3.8 0.3 3.4 97 0.2 WSW 11 15 6 8 1011.7 1011.9 0.4
15/12:30am 4.2 0.7 3.6 96 0.2 WSW 11 15 6 8 1011.9 1012.1 0.4
15/12:00am 4.5 0.7 3.9 96 0.3 WSW 13 19 7 10 1012.2 1012.4 0.4
 
Date/Time
EST
Temp
°C
App
Temp
°C
Dew
Point
°C
Rel
Hum
%
Delta-T
°C
Wind Press
QNH
hPa
Press
MSL
hPa
Rain since
9am
mm
Dir  Spd
km/h
Gust
km/h
Spd
kts
Gust
kts
14/11:30pm 4.4 0.9 3.5 94 0.4 WSW 11 17 6 9 1012.6 1012.8 0.4
14/11:00pm 4.1 0.6 3.4 95 0.3 WSW 11 15 6 8 1012.7 1012.9 0.4
14/10:30pm 3.9 0.7 3.2 95 0.3 WSW 9 11 5 6 1013.0 1013.2 0.4
14/10:00pm 4.2 1.0 3.3 94 0.4 WSW 9 11 5 6 1013.2 1013.4 0.4
14/09:30pm 4.4 1.6 3.4 93 0.4 WSW 7 11 4 6 1013.3 1013.5 0.4
14/09:00pm 5.7 2.7 4.0 89 0.7 WSW 9 11 5 6 1013.5 1013.7 0.4
14/08:30pm 6.8 3.5 4.5 85 1.0 WSW 11 13 6 7 1013.5 1013.7 0.4
14/08:00pm 6.6 3.2 3.9 83 1.2 SW 11 13 6 7 1013.6 1013.8 0.4
14/07:30pm 7.7 4.0 4.3 79 1.5 SW 13 19 7 10 1013.5 1013.7 0.4
14/07:00pm 6.7 3.8 4.5 86 1.0 SSW 9 11 5 6 1013.5 1013.7 0.4
14/06:30pm 6.9 4.4 4.7 86 1.0 SSW 7 9 4 5 1013.5 1013.7 0.4
14/06:00pm 6.6 3.6 4.3 85 1.0 SSW 9 9 5 5 1013.2 1013.4 0.4
14/05:30pm 8.1 5.1 4.3 77 1.7 S 9 15 5 8 1013.1 1013.3 0.4
14/05:00pm 9.5 6.6 4.7 72 2.2 SSW 9 13 5 7 1013.1 1013.3 0.4
14/04:30pm 10.3 6.3 5.1 70 2.4 SSW 15 20 8 11 1013.1 1013.3 0.4
14/04:00pm 11.2 5.6 3.7 60 3.3 SW 22 30 12 16 1013.1 1013.3 0.4
14/03:30pm 11.4 7.2 5.7 68 2.7 WSW 17 24 9 13 1013.1 1013.3 0.4
14/03:00pm 11.1 6.8 5.2 67 2.7 WSW 17 24 9 13 1013.2 1013.4 0.4
14/02:30pm 11.2 5.9 5.1 66 2.8 WSW 22 30 12 16 1013.3 1013.5 0.4
14/02:00pm 9.8 4.8 4.8 71 2.3 SW 20 33 11 18 1013.4 1013.6 0.4
14/01:30pm 11.3 6.2 6.2 71 2.4 SW 22 28 12 15 1013.5 1013.7 0.4
14/01:00pm 9.3 4.7 6.7 84 1.2 SSW 20 32 11 17 1013.8 1014.0 0.4
14/12:30pm 9.6 5.2 5.0 73 2.1 SSW 17 28 9 15 1014.3 1014.5 0.0
14/12:00pm 10.7 5.2 5.9 72 2.2 SSW 24 35 13 19 1014.8 1015.0 0.0
14/11:30am 9.7 4.8 5.1 73 2.1 SSW 20 30 11 16 1015.3 1015.5 0.0
14/11:00am 9.5 3.4 4.9 73 2.1 SW 26 33 14 18 1015.6 1015.8 0.0
14/10:30am 9.2 4.6 5.4 77 1.7 SW 19 32 10 17 1015.8 1016.0 0.0
14/10:00am 8.5 3.9 5.8 83 1.2 WSW 19 22 10 12 1015.8 1016.0 0.0
14/09:30am 7.2 3.2 4.9 85 1.0 WSW 15 19 8 10 1015.9 1016.1 0.0
14/09:00am 6.5 3.4 5.5 93 0.4 SW 11 17 6 9 1015.8 1016.0 0.0
14/08:30am 5.4 2.6 5.1 98 0.1 SW 9 13 5 7 1015.9 1016.1 0.0
14/08:00am 4.1 1.1 4.1 100 0.0 SW 9 11 5 6 1015.9 1016.1 0.0
14/07:30am 3.3 -0.2 3.3 100 0.0 SW 11 13 6 7 1015.8 1016.0 0.0
14/07:00am 4.0 0.6 3.9 99 0.0 SW 11 17 6 9 1015.7 1015.9 0.0
14/06:30am 3.9 0.5 3.9 100 0.0 SSW 11 13 6 7 1015.6 1015.8 0.0
14/06:00am 4.1 0.7 4.1 100 0.0 SSW 11 13 6 7 1015.4 1015.6 0.0
14/05:30am 4.3 1.3 4.3 100 0.0 SSW 9 13 5 7 1015.1 1015.3 0.0
14/05:00am 4.1 1.1 4.1 100 0.0 SSW 9 11 5 6 1015.0 1015.2 0.0
14/04:30am 4.1 1.1 4.1 100 0.0 SSW 9 11 5 6 1015.1 1015.3 0.0
14/04:00am 4.1 1.1 4.1 100 0.0 SSW 9 9 5 5 1015.4 1015.6 0.0
14/03:30am 4.7 2.2 4.7 100 0.0 SSW 7 9 4 5 1015.4 1015.6 0.0
14/03:00am 4.9 2.4 4.9 100 0.0 SSW 7 9 4 5 1015.4 1015.6 0.0
14/02:30am 4.6 2.1 4.6 100 0.0 SSW 7 9 4 5 1015.5 1015.7 0.0
14/02:00am 4.7 1.8 4.7 100 0.0 SSW 9 11 5 6 1015.5 1015.7 0.0
14/01:30am 5.3 2.9 5.2 99 0.0 SSW 7 9 4 5 1015.6 1015.8 0.0
14/01:00am 6.1 3.1 6.0 99 0.0 SSW 11 13 6 7 1015.3 1015.5 0.0
14/12:30am 6.0 3.4 5.9 99 0.0 SSW 9 13 5 7 1015.5 1015.7 0.0
14/12:00am 6.6 4.0 6.2 97 0.2 SSW 9 13 5 7 1015.9 1016.1 0.0
 
Date/Time
EST
Temp
°C
App
Temp
°C
Dew
Point
°C
Rel
Hum
%
Delta-T
°C
Wind Press
QNH
hPa
Press
MSL
hPa
Rain since
9am
mm
Dir  Spd
km/h
Gust
km/h
Spd
kts
Gust
kts
13/11:30pm 6.6 3.6 6.0 96 0.3 SSW 11 13 6 7 1016.0 1016.2 0.0
13/11:00pm 7.6 4.7 6.5 93 0.5 SSW 11 15 6 8 1016.3 1016.5 0.0
13/10:30pm 7.5 4.5 6.0 90 0.7 SSW 11 13 6 7 1016.4 1016.6 0.0
13/10:00pm 9.0 6.6 7.0 87 0.9 SSW 9 13 5 7 1016.5 1016.7 0.0
13/09:30pm 8.8 6.3 6.6 86 1.0 SSW 9 11 5 6 1016.5 1016.7 0.0
13/09:00pm 9.2 6.3 6.6 84 1.2 SSW 11 13 6 7 1016.4 1016.6 0.0
13/08:30pm 9.5 7.0 6.6 82 1.4 SSW 9 13 5 7 1016.3 1016.5 0.0
13/08:00pm 9.6 7.0 6.3 80 1.5 SSW 9 11 5 6 1016.3 1016.5 0.0
13/07:30pm 10.0 7.5 6.7 80 1.6 SSW 9 13 5 7 1016.2 1016.4 0.0
13/07:00pm 10.0 7.5 6.7 80 1.6 SSW 9 11 5 6 1016.3 1016.5 0.0
13/06:30pm 10.6 8.4 6.4 75 2.0 SSW 7 11 4 6 1016.1 1016.3 0.0
13/06:00pm 10.8 7.8 6.2 73 2.2 SSW 11 15 6 8 1015.8 1016.0 0.0
13/05:30pm 11.0 8.4 6.2 72 2.3 SSW 9 13 5 7 1015.7 1015.9 0.0
13/05:00pm 11.5 8.1 5.8 68 2.7 SSW 13 17 7 9 1015.6 1015.8 0.0
13/04:30pm 11.9 8.6 6.6 70 2.5 SW 13 17 7 9 1015.5 1015.7 0.0
13/04:00pm 11.8 9.2 7.7 76 2.0 SW 11 13 6 7 1015.4 1015.6 0.0
13/03:30pm 12.3 9.2 7.4 72 2.4 SW 13 19 7 10 1015.3 1015.5 0.0
13/03:00pm 12.3 9.7 7.6 73 2.3 SW 11 17 6 9 1015.4 1015.6 0.0
13/02:30pm 12.4 9.5 8.1 75 2.1 S 13 17 7 9 1015.4 1015.6 0.0
13/02:00pm 12.4 9.5 8.3 76 2.0 SSW 13 17 7 9 1015.3 1015.5 0.0
13/01:30pm 12.2 8.6 8.5 78 1.8 SSW 17 20 9 11 1015.6 1015.8 0.0
13/01:00pm 11.6 8.4 8.6 82 1.5 SW 15 26 8 14 1016.0 1016.2 0.0
13/12:45pm 11.2 9.4 9.6 90 0.8 SW 9 13 5 7 1016.1 1016.3 0.0
13/12:30pm 10.2 8.4 9.6 96 0.3 WSW 9 13 5 7 1016.2 1016.4 0.0
13/12:00pm 9.0 6.7 9.0 100 0.0 SW 11 15 6 8 1016.7 1017.0 0.0
13/11:30am 7.8 5.2 7.8 100 0.0 SW 11 15 6 8 1017.1 1017.4 0.0
13/11:19am 7.3 5.0 7.3 100 0.0 SW 9 13 5 7 1017.3 1017.6 0.0
13/11:00am 7.0 4.6 7.0 100 0.0 SW 9 13 5 7 1017.5 1017.8 0.0
13/10:47am 6.5 4.4 6.5 100 0.0 SW 7 9 4 5 1017.7 1018.0 0.0
13/10:30am 6.3 4.3 6.3 100 0.0 SSW 6 9 3 5 1017.7 1018.0 0.0
13/10:00am 5.4 4.0 5.4 100 0.0 SSW 2 7 1 4 1017.6 1017.9 0.0
13/09:30am 4.9 3.8 4.9 100 0.0 CALM 0 6 0 3 1017.4 1017.7 0.0
13/09:00am 4.2 1.8 4.2 100 0.0 SSW 6 9 3 5 1017.4 1017.7 1.6
13/08:54am 4.1 1.5 4.1 100 0.0 SSW 7 9 4 5 1017.6 1017.9 1.6
13/08:30am 3.9 1.4 3.9 100 0.0 SSW 6 7 3 4 1017.3 1017.6 1.6
13/08:28am 3.9 1.4 3.9 100 0.0 SSW 6 7 3 4 1017.3 1017.6 1.6
13/08:00am 3.3 0.5 3.3 100 0.0 SSW 7 9 4 5 1017.2 1017.5 1.6
13/07:30am 3.3 0.7 3.3 100 0.0 SSW 6 7 3 4 1017.0 1017.3 1.6
13/07:00am 3.8 2.4 3.8 100 0.0 CALM 0 0 0 0 1016.7 1017.0 1.6
13/06:30am 3.8 1.3 3.8 100 0.0 SW 6 7 3 4 1016.6 1016.8 1.6
13/06:00am 4.0 1.4 4.0 100 0.0 SW 7 11 4 6 1016.6 1016.8 1.6
13/05:30am 4.3 3.0 4.3 100 0.0 CALM 0 0 0 0 1016.3 1016.5 1.6
13/05:00am 4.8 3.6 4.8 100 0.0 CALM 0 0 0 0 1016.4 1016.6 1.2
13/04:30am 5.0 3.1 5.0 100 0.0 SW 4 6 2 3 1016.4 1016.6 1.2
13/04:00am 5.2 3.0 5.2 100 0.0 SW 6 7 3 4 1016.3 1016.5 1.2
13/03:30am 5.0 3.5 5.0 100 0.0 SW 2 6 1 3 1016.4 1016.6 1.2
13/03:00am 4.8 3.6 4.8 100 0.0 CALM 0 0 0 0 1016.4 1016.6 1.2
13/02:54am 4.6 3.4 4.6 100 0.0 CALM 0 0 0 0 1016.3 1016.5 1.2
13/02:40am 4.6 3.4 4.6 100 0.0 CALM 0 0 0 0 1016.3 1016.5 1.2
13/02:30am 4.8 3.6 4.8 100 0.0 CALM 0 0 0 0 1016.2 1016.4 1.2
13/02:00am 5.0 3.9 5.0 100 0.0 CALM 0 0 0 0 1016.3 1016.5 1.2
13/01:30am 5.0 3.1 5.0 100 0.0 SSW 4 7 2 4 1016.2 1016.4 1.2
13/01:00am 4.9 3.8 4.9 100 0.0 CALM 0 0 0 0 1016.3 1016.5 1.2
13/12:30am 5.1 4.0 5.1 100 0.0 CALM 0 2 0 1 1016.4 1016.6 1.2
13/12:00am 5.5 4.1 5.5 100 0.0 SSW 2 6 1 3 1016.6 1016.8 1.2
 
Date/Time
EST
Temp
°C
App
Temp
°C
Dew
Point
°C
Rel
Hum
%
Delta-T
°C
Wind Press
QNH
hPa
Press
MSL
hPa
Rain since
9am
mm
Dir  Spd
km/h
Gust
km/h
Spd
kts
Gust
kts
12/11:30pm 5.7 3.6 5.7 100 0.0 SSW 6 7 3 4 1016.7 1017.0 1.2
12/11:00pm 5.4 3.2 5.4 100 0.0 SSW 6 7 3 4 1016.7 1017.0 1.2
12/10:30pm 5.3 4.2 5.3 100 0.0 CALM 0 0 0 0 1016.4 1016.6 1.2
12/10:00pm 5.5 4.5 5.5 100 0.0 CALM 0 0 0 0 1016.5 1016.7 1.2
12/09:30pm 5.4 4.4 5.4 100 0.0 CALM 0 0 0 0 1016.4 1016.6 1.0
12/09:00pm 5.4 4.4 5.4 100 0.0 CALM 0 0 0 0 1016.3 1016.5 1.0
12/08:30pm 5.8 4.8 5.8 100 0.0 CALM 0 0 0 0 1016.2 1016.4 1.0

Other formats

Comma delimited format used in spreadsheet applications
http://www.bom.gov.au/fwo/IDV60801/IDV60801.94875.axf

JavaScript Object Notation format (JSON) in row-major order
http://www.bom.gov.au/fwo/IDV60801/IDV60801.94875.json

Data quality

Most of these data are generated automatically and are frequently updated. Quality checks on data are not normally performed. It is possible for incorrect values to appear. Refer to information at About Latest Weather Observations and please check the disclaimer before using these data.